Funafuti, Tuvalu
Current Conditions -  °F | °C
As of 6:00 PM on Wednesday 22 Oct 2014 (Local Time) from NGFU Reporting Station
Broken Clouds Broken Clouds  
Wind Chill: 86°   Ceiling: 31000
Heat Index: 95°   Visibility: 6mi
Dew Point: 75°   Wind: 0mph
Humidity: 70%   Direction: NA
Pressure: 29.77"   Gusts: NA
Location:  8.52°S, 179.19°E
Report Text: NGFU 220600Z 00000KT 9999 FEW020 BKN310 30/24 Q1008
Loading
Personal Weather Stations






























Interactive Weather Map
Tropical Storm Tracking
New forecast layout! Learn more

10-Day Weather Forecast

Advertisements
Track Severe Weather on mobile